createdAt,value
2022-10-06T00:00:10.663Z,82.19
2022-10-06T00:03:13.774Z,83.07
2022-10-06T00:06:17.886Z,83.52
2022-10-06T00:09:20.556Z,83.55
2022-10-06T00:12:23.194Z,83.07
2022-10-06T00:15:29.765Z,83.01
2022-10-06T00:18:32.632Z,83.27
2022-10-06T00:21:36.161Z,82.81
2022-10-06T00:24:38.788Z,82.40
2022-10-06T00:27:49.170Z,82.62
2022-10-06T00:30:53.790Z,82.53
2022-10-06T00:33:58.273Z,81.97
2022-10-06T00:37:00.990Z,82.79
2022-10-06T00:40:09.892Z,83.25
2022-10-06T00:43:43.535Z,83.25
2022-10-06T00:46:50.543Z,83.33
2022-10-06T00:49:55.567Z,83.59
2022-10-06T00:52:58.720Z,84.47
2022-10-06T00:56:01.408Z,84.82
2022-10-06T00:59:04.183Z,85.16
2022-10-06T01:02:12.546Z,84.54
2022-10-06T01:05:21.890Z,84.68
2022-10-06T01:08:26.195Z,83.79
2022-10-06T01:11:31.706Z,83.77
2022-10-06T01:14:37.114Z,83.72
2022-10-06T01:17:55.270Z,84.22
2022-10-06T01:21:19.082Z,84.82
2022-10-06T01:24:22.298Z,86.25
2022-10-06T01:27:27.841Z,85.62
2022-10-06T01:30:35.584Z,86.55
2022-10-06T01:33:38.426Z,86.41
2022-10-06T01:36:41.614Z,85.91
2022-10-06T01:39:44.810Z,85.70
2022-10-06T01:42:47.604Z,85.40
2022-10-06T01:45:58.070Z,85.60
2022-10-06T01:49:01.116Z,85.83
2022-10-06T01:52:05.015Z,85.49
2022-10-06T01:55:08.271Z,85.80
2022-10-06T01:58:12.579Z,86.39
2022-10-06T02:01:16.526Z,85.92
2022-10-06T02:04:22.221Z,86.34
2022-10-06T02:07:25.104Z,86.92
2022-10-06T02:10:28.816Z,86.54
2022-10-06T02:13:33.957Z,86.55
2022-10-06T02:16:36.789Z,86.20
2022-10-06T02:19:39.610Z,86.78
2022-10-06T02:22:44.017Z,86.24
2022-10-06T02:25:46.660Z,86.97
2022-10-06T02:28:50.139Z,86.19
2022-10-06T02:31:56.849Z,86.42
2022-10-06T02:35:00.394Z,85.29
2022-10-06T02:38:03.107Z,86.22
2022-10-06T02:41:08.700Z,85.59
2022-10-06T02:44:11.901Z,85.94
2022-10-06T02:47:20.945Z,85.84
2022-10-06T02:50:24.246Z,85.64
2022-10-06T02:53:28.147Z,86.89
2022-10-06T02:56:30.848Z,86.68
2022-10-06T02:59:34.297Z,86.26
2022-10-06T03:02:39.957Z,86.77
2022-10-06T03:05:43.084Z,86.09
2022-10-06T03:08:45.931Z,86.02
2022-10-06T03:11:49.058Z,85.60
2022-10-06T03:15:03.128Z,85.13
2022-10-06T03:18:06.838Z,86.49
2022-10-06T03:21:09.535Z,86.17
2022-10-06T03:24:12.603Z,85.91
2022-10-06T03:27:16.362Z,86.55
2022-10-06T03:30:19.309Z,86.39
2022-10-06T03:33:22.411Z,86.90
2022-10-06T03:36:28.085Z,86.34
2022-10-06T03:39:30.966Z,86.65
2022-10-06T03:42:33.763Z,87.12
2022-10-06T03:45:36.706Z,87.83
2022-10-06T03:48:39.614Z,87.46
2022-10-06T03:51:46.240Z,87.68
2022-10-06T03:54:55.001Z,87.29
2022-10-06T03:57:58.469Z,88.05
2022-10-06T04:01:06.619Z,87.78
2022-10-06T04:04:11.320Z,87.08
2022-10-06T04:07:15.551Z,87.68
2022-10-06T04:10:21.422Z,87.74
2022-10-06T04:13:24.101Z,87.51
2022-10-06T04:16:29.969Z,87.04
2022-10-06T04:19:32.906Z,87.11
2022-10-06T04:22:37.640Z,87.12
2022-10-06T04:25:40.230Z,87.82
2022-10-06T04:28:45.871Z,87.14
2022-10-06T04:31:50.462Z,87.30
2022-10-06T04:35:05.299Z,87.58
2022-10-06T04:38:08.369Z,87.28
2022-10-06T04:41:16.696Z,87.33
2022-10-06T04:44:25.388Z,86.63
2022-10-06T04:47:32.739Z,86.86
2022-10-06T04:50:38.902Z,86.49
2022-10-06T04:53:48.954Z,86.76
2022-10-06T04:56:52.386Z,86.15
2022-10-06T05:00:16.737Z,85.91
2022-10-06T05:03:21.888Z,87.01
2022-10-06T05:06:31.364Z,87.30
2022-10-06T05:09:34.473Z,87.28
2022-10-06T05:12:38.498Z,86.74
2022-10-06T05:15:41.876Z,86.67
2022-10-06T05:18:46.334Z,86.40
2022-10-06T05:21:49.242Z,86.00
2022-10-06T05:24:56.497Z,85.14
2022-10-06T05:27:59.769Z,85.90
2022-10-06T05:31:18.605Z,86.25
2022-10-06T05:34:22.466Z,86.43
2022-10-06T05:37:35.785Z,87.06
2022-10-06T05:40:41.113Z,86.53
2022-10-06T05:43:54.269Z,87.22
2022-10-06T05:46:58.660Z,86.29
2022-10-06T05:50:26.503Z,86.16
2022-10-06T05:55:09.020Z,86.23
2022-10-06T05:58:22.852Z,86.43
2022-10-06T06:01:50.422Z,86.07
2022-10-06T06:05:21.599Z,85.81
2022-10-06T06:09:23.771Z,86.24
2022-10-06T06:12:55.392Z,85.78
2022-10-06T06:16:20.183Z,85.81
2022-10-06T06:19:30.083Z,85.05
2022-10-06T06:22:36.525Z,85.42
2022-10-06T06:26:37.734Z,85.27
2022-10-06T06:30:01.111Z,85.12
2022-10-06T06:33:56.997Z,85.66
2022-10-06T06:38:47.395Z,86.57
2022-10-06T06:42:02.551Z,85.21
2022-10-06T06:45:58.456Z,84.87
2022-10-06T06:50:15.545Z,84.53
2022-10-06T06:59:21.323Z,85.25
2022-10-06T07:10:52.081Z,85.23
2022-10-06T07:14:19.181Z,85.32
2022-10-06T07:17:47.356Z,84.67
2022-10-06T07:21:21.580Z,84.49
2022-10-06T07:24:47.111Z,85.20
2022-10-06T07:28:04.548Z,82.93
2022-10-06T07:32:49.014Z,81.69
2022-10-06T07:36:25.862Z,80.37
2022-10-06T07:56:58.359Z,79.42
2022-10-06T08:13:29.180Z,75.32
2022-10-06T08:18:12.208Z,75.00
2022-10-06T08:32:47.910Z,73.56
2022-10-06T08:37:59.381Z,71.77
2022-10-06T08:50:15.131Z,70.00
2022-10-06T08:53:38.861Z,68.94
2022-10-06T08:57:04.411Z,67.71
2022-10-06T09:00:42.714Z,67.82
2022-10-06T09:04:23.570Z,67.35
2022-10-06T09:07:48.122Z,66.30
2022-10-06T09:11:15.100Z,66.68
2022-10-06T09:14:59.739Z,66.42
2022-10-06T09:18:21.273Z,64.55
2022-10-06T09:26:57.756Z,64.03
2022-10-06T10:41:41.131Z,54.21
2022-10-06T10:45:01.278Z,53.71
2022-10-06T10:48:34.196Z,53.52
2022-10-06T10:52:45.419Z,53.79
2022-10-06T11:23:01.709Z,50.15
2022-10-06T11:26:57.231Z,49.70
2022-10-06T11:30:29.680Z,49.12
2022-10-06T11:34:12.668Z,48.98
2022-10-06T11:38:11.650Z,48.72
2022-10-06T11:45:22.735Z,48.87
2022-10-06T11:48:37.094Z,49.69
2022-10-06T11:52:15.382Z,49.34
2022-10-06T11:55:30.658Z,49.75
2022-10-06T12:05:55.241Z,48.84
2022-10-06T12:08:42.879Z,47.99
2022-10-06T12:11:49.489Z,47.92
2022-10-06T12:20:53.794Z,49.27
2022-10-06T12:24:25.768Z,49.09
2022-10-06T12:27:49.304Z,49.35
2022-10-06T12:31:19.302Z,49.81
2022-10-06T12:34:42.832Z,49.40
2022-10-06T12:37:54.390Z,48.97
2022-10-06T12:41:04.029Z,47.43
2022-10-06T12:44:34.955Z,46.64
2022-10-06T12:47:43.627Z,47.39
2022-10-06T12:50:51.596Z,47.91
2022-10-06T12:54:10.554Z,48.18
2022-10-06T12:57:37.903Z,48.20
2022-10-06T13:02:00.388Z,48.64
2022-10-06T13:05:11.864Z,49.72
2022-10-06T13:08:34.745Z,49.33
2022-10-06T13:11:37.644Z,49.96
2022-10-06T13:14:41.385Z,50.16
2022-10-06T13:18:12.801Z,50.44
2022-10-06T13:21:16.872Z,50.54
2022-10-06T13:24:26.753Z,50.80
2022-10-06T13:27:29.459Z,50.85
2022-10-06T13:30:37.718Z,50.48
2022-10-06T13:33:47.398Z,50.67
2022-10-06T13:36:52.288Z,50.72
2022-10-06T13:39:55.214Z,51.41
2022-10-06T13:43:02.716Z,51.17
2022-10-06T13:46:16.010Z,51.19
2022-10-06T13:55:26.106Z,51.29
2022-10-06T13:58:31.277Z,51.24
2022-10-06T14:01:42.202Z,50.99
2022-10-06T14:06:47.904Z,50.93
2022-10-06T14:09:51.183Z,50.77
2022-10-06T14:13:01.670Z,51.30
2022-10-06T14:16:09.401Z,51.23
2022-10-06T14:19:36.247Z,51.08
2022-10-06T14:22:38.998Z,51.99
2022-10-06T14:25:41.572Z,52.61
2022-10-06T14:28:53.043Z,52.22
2022-10-06T14:31:55.690Z,52.14
2022-10-06T14:34:58.813Z,52.40
2022-10-06T14:38:02.369Z,52.86
2022-10-06T14:41:04.907Z,56.37
2022-10-06T14:44:11.367Z,56.34
2022-10-06T14:47:13.963Z,54.28
2022-10-06T14:50:16.623Z,53.46
2022-10-06T14:53:20.259Z,53.27
2022-10-06T14:56:25.994Z,53.34
2022-10-06T14:59:28.952Z,53.40
2022-10-06T15:02:31.685Z,55.08
2022-10-06T15:05:34.326Z,55.31
2022-10-06T15:08:37.845Z,55.03
2022-10-06T15:11:41.502Z,55.36
2022-10-06T15:14:44.924Z,55.48
2022-10-06T15:17:48.805Z,55.55
2022-10-06T15:20:54.197Z,56.50
2022-10-06T15:23:58.728Z,56.85
2022-10-06T15:27:24.677Z,57.25
2022-10-06T15:30:28.276Z,58.07
2022-10-06T15:33:31.857Z,58.86
2022-10-06T15:36:36.563Z,59.40
2022-10-06T15:39:39.822Z,59.90
2022-10-06T15:42:44.461Z,60.32
2022-10-06T15:45:55.259Z,61.08
2022-10-06T15:49:04.784Z,61.34
2022-10-06T15:52:11.340Z,61.70
2022-10-06T15:55:14.496Z,61.42
2022-10-06T15:58:17.869Z,62.05
2022-10-06T16:01:40.952Z,62.13
2022-10-06T16:04:44.998Z,62.89
2022-10-06T16:07:48.453Z,62.84
2022-10-06T16:10:51.314Z,63.36
2022-10-06T16:13:53.986Z,63.74
2022-10-06T16:17:01.023Z,63.97
2022-10-06T16:20:05.348Z,64.27
2022-10-06T16:23:08.227Z,64.60
2022-10-06T16:26:11.404Z,64.57
2022-10-06T16:29:15.169Z,64.79
2022-10-06T16:32:17.740Z,65.31
2022-10-06T16:35:20.447Z,65.84
2022-10-06T16:38:24.409Z,67.11
2022-10-06T16:41:27.077Z,67.10
2022-10-06T16:44:30.571Z,67.07
2022-10-06T16:47:33.141Z,66.79
2022-10-06T16:50:36.449Z,67.33
2022-10-06T16:53:47.387Z,66.98
2022-10-06T16:56:54.020Z,66.65
2022-10-06T16:59:56.629Z,67.09
2022-10-06T17:02:59.860Z,67.37
2022-10-06T17:06:16.418Z,67.41
2022-10-06T17:09:22.843Z,67.56
2022-10-06T17:12:28.108Z,67.96
2022-10-06T17:15:33.470Z,68.24
2022-10-06T17:18:36.381Z,68.06
2022-10-06T17:21:46.141Z,68.15
2022-10-06T17:24:49.600Z,68.00
2022-10-06T17:27:52.159Z,68.28
2022-10-06T17:30:59.775Z,68.51
2022-10-06T17:34:05.503Z,68.29
2022-10-06T17:37:09.021Z,69.06
2022-10-06T17:40:12.448Z,69.22
2022-10-06T17:43:15.031Z,70.07
2022-10-06T17:46:22.944Z,70.23
2022-10-06T17:49:26.676Z,70.22
2022-10-06T17:52:30.376Z,70.25
2022-10-06T17:55:36.346Z,71.11
2022-10-06T17:58:41.898Z,71.16
2022-10-06T18:01:45.513Z,71.49
2022-10-06T18:04:49.930Z,71.71
2022-10-06T18:07:53.173Z,72.00
2022-10-06T18:11:14.300Z,72.48
2022-10-06T18:14:19.533Z,72.74
2022-10-06T18:17:24.424Z,73.36
2022-10-06T18:20:30.278Z,73.57
2022-10-06T18:23:33.643Z,73.91
2022-10-06T18:26:38.346Z,74.62
2022-10-06T18:29:41.031Z,74.38
2022-10-06T18:36:12.263Z,75.52
2022-10-06T18:39:16.219Z,74.98
2022-10-06T18:42:20.174Z,75.16
2022-10-06T18:45:41.972Z,75.42
2022-10-06T18:48:54.721Z,75.81
2022-10-06T18:51:58.435Z,76.08
2022-10-06T18:55:01.070Z,75.83
2022-10-06T18:58:05.365Z,76.69
2022-10-06T19:01:09.040Z,76.83
2022-10-06T19:04:14.975Z,76.98
2022-10-06T19:07:17.643Z,76.59
2022-10-06T19:10:21.648Z,75.93
2022-10-06T19:13:25.182Z,76.13
2022-10-06T19:16:27.782Z,76.60
2022-10-06T19:19:33.846Z,76.49
2022-10-06T19:22:36.948Z,77.16
2022-10-06T19:25:40.136Z,77.30
2022-10-06T19:28:42.983Z,77.98
2022-10-06T19:31:50.327Z,77.71
2022-10-06T19:34:57.914Z,77.78
2022-10-06T19:38:00.598Z,78.10
2022-10-06T19:41:23.571Z,78.46
2022-10-06T19:44:27.305Z,78.54
2022-10-06T19:47:30.636Z,78.35
2022-10-06T19:50:35.958Z,78.35
2022-10-06T19:53:39.173Z,78.49
2022-10-06T19:56:42.089Z,78.87
2022-10-06T19:59:45.266Z,79.27
2022-10-06T20:02:48.721Z,79.52
2022-10-06T20:05:52.249Z,79.42
2022-10-06T20:08:57.701Z,79.53
2022-10-06T20:12:05.907Z,79.53
2022-10-06T20:15:10.016Z,79.79
2022-10-06T20:18:12.674Z,79.56
2022-10-06T20:21:31.131Z,79.70
2022-10-06T20:24:35.270Z,79.44
2022-10-06T20:27:38.792Z,80.03
2022-10-06T20:30:49.584Z,80.15
2022-10-06T20:33:58.204Z,80.09
2022-10-06T20:37:05.350Z,80.74
2022-10-06T20:40:28.974Z,80.97
2022-10-06T20:43:31.438Z,80.97
2022-10-06T20:46:36.953Z,80.96
2022-10-06T20:49:42.663Z,81.83
2022-10-06T20:52:46.982Z,81.61
2022-10-06T20:55:56.193Z,81.75
2022-10-06T20:58:59.475Z,82.06
2022-10-06T21:02:04.587Z,82.45
2022-10-06T21:05:08.899Z,81.78
2022-10-06T21:08:11.596Z,81.36
2022-10-06T21:11:17.455Z,82.06
2022-10-06T21:14:20.812Z,82.85
2022-10-06T21:17:24.508Z,82.92
2022-10-06T21:20:29.830Z,83.29
2022-10-06T21:23:37.419Z,83.05
2022-10-06T21:26:42.717Z,83.19
2022-10-06T21:29:46.328Z,82.53
2022-10-06T21:32:48.896Z,83.37
2022-10-06T21:36:01.218Z,83.83
2022-10-06T21:39:05.715Z,82.78
2022-10-06T21:42:08.930Z,83.13
2022-10-06T21:45:11.454Z,83.22
2022-10-06T21:48:14.998Z,83.63
2022-10-06T21:51:18.905Z,83.40
2022-10-06T21:54:23.390Z,83.66
2022-10-06T21:57:26.835Z,83.79
2022-10-06T22:00:29.789Z,83.88
2022-10-06T22:03:39.672Z,84.03
2022-10-06T22:06:44.592Z,83.86
2022-10-06T22:09:47.195Z,84.18
2022-10-06T22:12:49.891Z,84.17
2022-10-06T22:15:53.345Z,84.72
2022-10-06T22:18:57.482Z,84.53
2022-10-06T22:22:00.300Z,85.09
2022-10-06T22:25:03.141Z,84.18
2022-10-06T22:28:07.009Z,84.99
2022-10-06T22:31:11.945Z,84.95
2022-10-06T22:34:18.186Z,84.71
2022-10-06T22:37:21.365Z,84.97
2022-10-06T22:40:24.860Z,85.00
2022-10-06T22:43:28.740Z,85.67
2022-10-06T22:46:35.425Z,85.75
2022-10-06T22:49:39.021Z,84.79
2022-10-06T22:52:41.628Z,84.95
2022-10-06T22:55:44.530Z,85.04
2022-10-06T22:58:47.338Z,85.79
2022-10-06T23:01:49.916Z,85.98
2022-10-06T23:04:52.475Z,85.48
2022-10-06T23:07:54.941Z,85.98
2022-10-06T23:11:10.780Z,85.66
2022-10-06T23:14:13.909Z,86.03
2022-10-06T23:17:16.411Z,86.30
2022-10-06T23:20:20.860Z,85.96
2022-10-06T23:23:23.456Z,85.64
2022-10-06T23:26:27.393Z,85.71
2022-10-06T23:29:33.921Z,86.37
2022-10-06T23:32:37.630Z,86.55
2022-10-06T23:35:40.957Z,86.30
2022-10-06T23:38:45.365Z,86.38
2022-10-06T23:41:50.176Z,86.15
2022-10-06T23:44:53.525Z,87.00
2022-10-06T23:47:56.011Z,86.79
2022-10-06T23:51:05.511Z,87.20
2022-10-06T23:54:08.606Z,87.03
2022-10-06T23:57:11.981Z,86.71
